Verboort, Oregon
Current Conditions -  °F | °C
As of 8:53 AM on Thursday 23 Oct 2014 (Local Time) from KHIO Reporting Station
Light Rain Light Rain  
Wind Chill: 54°   Ceiling: 5500
Heat Index: 54°   Visibility: 6mi
Dew Point: 54°   Wind: 0mph
Humidity: 100%   Direction: NA
Pressure: 29.81"   Gusts: NA
Location:  45.6684°N, 123.34°W
Report Text: KHIO 231553Z 00000KT 6SM -RA BR FEW008 BKN055 OVC070 12/12 A2981 RMK AO2 RAB04 SLP092 P0006 T01220122
Loading
Personal Weather Stations






























Interactive Weather Map
Tropical Storm Tracking
New forecast layout! Learn more

10-Day Weather Forecast

Advertisements
Track Severe Weather on mobile